Hornet, Minnesota
Current Conditions -  °F | °C
As of 6:31 AM on Monday 24 Nov 2014 (Local Time) from KVWU Reporting Station
Light Snow Light Snow  
Wind Chill:   Ceiling: 1200
Heat Index: 18°   Visibility: 7mi
Dew Point: 16°   Wind: 7mph
Humidity: 93%   Direction: 310°NW
Pressure: 29.47"   Gusts: 16mph
Location:  47.7306°N, 94.3762°W
Report Text: KVWU 241231Z AUTO 31006G14KT 7SM -SN OVC012 M08/M09 A2947 RMK AO2
Loading
Personal Weather Stations






























Interactive Weather Map New forecast layout! Learn more

10-Day Weather Forecast

Advertisements
Track Severe Weather on mobile